| time (UTC) | temp F | wind direction | speed MPH | gust MPH | rain 1hr in | rain 24hr in | rain mn in | humidity % | barometer mb |
| 20260504181016 | 78 | 65 | 1.0 | 5.0 | 0.00 | 0.00 | 0.00 | 35 | 1012.7 |
| 20260504180516 | 78 | 84 | 1.0 | 6.0 | 0.00 | 0.00 | 0.00 | 35 | 1012.7 |
| 20260504180016 | 78 | 53 | 2.0 | 6.0 | 0.00 | 0.00 | 0.00 | 37 | 1012.7 |
| 20260504175516 | 78 | 36 | 2.0 | 5.0 | 0.00 | 0.00 | 0.00 | 36 | 1012.8 |
| 20260504175027 | 78 | 72 | 1.0 | 4.0 | 0.00 | 0.00 | 0.00 | 36 | 1012.8 |
| 20260504174516 | 78 | 83 | 1.0 | 4.0 | 0.00 | 0.00 | 0.00 | 36 | 1013.0 |
| 20260504174016 | 78 | 51 | 1.0 | 4.0 | 0.00 | 0.00 | 0.00 | 38 | 1013.0 |
| 20260504173516 | 78 | 69 | 2.0 | 4.0 | 0.00 | 0.00 | 0.00 | 35 | 1013.1 |
| 20260504173027 | 78 | 79 | 1.0 | 9.0 | 0.00 | 0.00 | 0.00 | 36 | 1013.0 |
| 20260504172515 | 79 | 68 | 2.0 | 9.0 | 0.00 | 0.00 | 0.00 | 36 | 1012.9 |
| 20260504172028 | 79 | 68 | 0.0 | 2.0 | 0.00 | 0.00 | 0.00 | 35 | 1013.0 |
| 20260504171516 | 79 | 84 | 1.0 | 2.0 | 0.00 | 0.00 | 0.00 | 34 | 1013.3 |
| 20260504171016 | 79 | 75 | 0.0 | 3.0 | 0.00 | 0.00 | 0.00 | 37 | 1013.4 |
| 20260504170516 | 78 | 79 | 1.0 | 3.0 | 0.00 | 0.00 | 0.00 | 36 | 1013.4 |
| 20260504151016 | 72 | 71 | 0.0 | 3.0 | 0.00 | 0.00 | 0.00 | 43 | 1014.7 |
| 20260504150516 | 71 | 78 | 1.0 | 3.0 | 0.00 | 0.00 | 0.00 | 42 | 1014.9 |
| 20260504141016 | 66 | 71 | 1.0 | 2.0 | 0.00 | 0.00 | 0.00 | 55 | 1014.6 |
| 20260504140517 | 66 | 75 | 0.0 | 2.0 | 0.00 | 0.00 | 0.00 | 57 | 1014.7 |
| 20260504130517 | 58 | 64 | 0.0 | 1.0 | 0.00 | 0.00 | 0.00 | 71 | 1014.8 |
| 20260504110516 | 38 | 66 | 0.0 | 0.0 | 0.00 | 0.00 | 0.00 | 97 | 1014.5 |
| 20260504100517 | 38 | 63 | 0.0 | 0.0 | 0.00 | 0.00 | 0.00 | 96 | 1014.6 |
| 20260504081517 | 39 | 63 | 0.0 | 0.0 | 0.00 | 0.00 | 0.00 | 95 | 1014.4 |
| 20260504081017 | 39 | 63 | 0.0 | 0.0 | 0.00 | 0.00 | 0.00 | 95 | 1014.4 |
| 20260504080517 | 39 | 63 | 0.0 | 0.0 | 0.00 | 0.00 | 0.00 | 94 | 1014.4 |
| 20260504050528 | 42 | 63 | 0.0 | 0.0 | 0.00 | 0.00 | 0.00 | 90 | 1014.6 |
| 20260504050017 | 42 | 63 | 0.0 | 0.0 | 0.00 | 0.00 | 0.00 | 90 | 1014.7 |
| 20260504045517 | 42 | 63 | 0.0 | 0.0 | 0.00 | 0.00 | 0.00 | 90 | 1014.6 |
| 20260504045017 | 42 | 63 | 0.0 | 0.0 | 0.00 | 0.00 | 0.00 | 90 | 1014.5 |
| 20260504044528 | 42 | 63 | 0.0 | 0.0 | 0.00 | 0.00 | 0.00 | 90 | 1014.6 |
| 20260504044018 | 43 | 63 | 0.0 | 0.0 | 0.00 | 0.00 | 0.00 | 91 | 1014.5 |
| 20260504043518 | 42 | 63 | 0.0 | 0.0 | 0.00 | 0.00 | 0.00 | 91 | 1014.5 |
| 20260504043017 | 42 | 63 | 0.0 | 0.0 | 0.00 | 0.00 | 0.00 | 89 | 1014.4 |
| 20260504042528 | 42 | 63 | 0.0 | 0.0 | 0.00 | 0.00 | 0.00 | 89 | 1014.3 |
| 20260504042018 | 43 | 63 | 0.0 | 0.0 | 0.00 | 0.00 | 0.00 | 89 | 1014.3 |
| 20260504041517 | 43 | 63 | 0.0 | 0.0 | 0.00 | 0.00 | 0.00 | 89 | 1014.4 |
| 20260504041017 | 43 | 63 | 0.0 | 0.0 | 0.00 | 0.00 | 0.00 | 89 | 1014.4 |
| 20260504040517 | 43 | 63 | 0.0 | 0.0 | 0.00 | 0.00 | 0.00 | 89 | 1014.5 |
| 20260504040017 | 43 | 63 | 0.0 | 0.0 | 0.00 | 0.00 | 0.00 | 88 | 1014.5 |
| 20260504035517 | 43 | 63 | 0.0 | 0.0 | 0.00 | 0.00 | 0.00 | 88 | 1014.5 |
| 20260504035017 | 43 | 63 | 0.0 | 0.0 | 0.00 | 0.00 | 0.00 | 88 | 1014.4 |
| 20260504034517 | 43 | 63 | 0.0 | 0.0 | 0.00 | 0.00 | 0.00 | 88 | 1014.4 |
| 20260504034017 | 43 | 63 | 0.0 | 0.0 | 0.00 | 0.00 | 0.00 | 87 | 1014.5 |
| 20260504033517 | 43 | 63 | 0.0 | 0.0 | 0.00 | 0.00 | 0.00 | 86 | 1014.5 |
| 20260504033017 | 44 | 63 | 0.0 | 0.0 | 0.00 | 0.00 | 0.00 | 86 | 1014.6 |
| 20260504032518 | 44 | 63 | 0.0 | 0.0 | 0.00 | 0.00 | 0.00 | 86 | 1014.6 |
| 20260504032028 | 44 | 63 | 0.0 | 0.0 | 0.00 | 0.00 | 0.00 | 85 | 1014.6 |
| 20260504031517 | 44 | 63 | 0.0 | 0.0 | 0.00 | 0.00 | 0.00 | 85 | 1014.5 |
| 20260504031028 | 44 | 63 | 0.0 | 0.0 | 0.00 | 0.00 | 0.00 | 85 | 1014.5 |
| 20260504030517 | 45 | 63 | 0.0 | 0.0 | 0.00 | 0.00 | 0.00 | 84 | 1014.6 |
| 20260504030017 | 45 | 63 | 0.0 | 0.0 | 0.00 | 0.00 | 0.00 | 84 | 1014.6 |
| 20260504025518 | 45 | 63 | 0.0 | 0.0 | 0.00 | 0.00 | 0.00 | 84 | 1014.6 |
| 20260504025017 | 45 | 63 | 0.0 | 0.0 | 0.00 | 0.00 | 0.00 | 83 | 1014.7 |
| 20260504024518 | 45 | 63 | 0.0 | 0.0 | 0.00 | 0.00 | 0.00 | 82 | 1014.5 |
| 20260504024017 | 45 | 63 | 0.0 | 0.0 | 0.00 | 0.00 | 0.00 | 82 | 1014.5 |
| 20260504023517 | 45 | 63 | 0.0 | 0.0 | 0.00 | 0.00 | 0.00 | 81 | 1014.5 |
| 20260504023017 | 46 | 63 | 0.0 | 0.0 | 0.00 | 0.00 | 0.00 | 80 | 1014.5 |
| 20260504022518 | 46 | 63 | 0.0 | 0.0 | 0.00 | 0.00 | 0.00 | 79 | 1014.4 |
| 20260504022017 | 46 | 63 | 0.0 | 0.0 | 0.00 | 0.00 | 0.00 | 79 | 1014.4 |
| 20260504021517 | 46 | 63 | 0.0 | 0.0 | 0.00 | 0.00 | 0.00 | 79 | 1014.3 |
| 20260504021017 | 47 | 63 | 0.0 | 0.0 | 0.00 | 0.00 | 0.00 | 77 | 1014.3 |
| 20260504020517 | 47 | 63 | 0.0 | 0.0 | 0.00 | 0.00 | 0.00 | 77 | 1014.3 |
| 20260504020018 | 47 | 63 | 0.0 | 0.0 | 0.00 | 0.00 | 0.00 | 76 | 1014.2 |
| 20260504015528 | 47 | 63 | 0.0 | 0.0 | 0.00 | 0.00 | 0.00 | 76 | 1014.2 |
| 20260504015018 | 47 | 63 | 0.0 | 0.0 | 0.00 | 0.00 | 0.00 | 75 | 1014.1 |
| 20260504014028 | 48 | 63 | 0.0 | 0.0 | 0.00 | 0.00 | 0.00 | 71 | 1013.9 |
| 20260504013018 | 49 | 63 | 0.0 | 0.0 | 0.00 | 0.00 | 0.00 | 71 | 1013.8 |
| 20260504012018 | 50 | 63 | 0.0 | 0.0 | 0.00 | 0.00 | 0.00 | 70 | 1013.8 |
| 20260504011017 | 50 | 63 | 0.0 | 0.0 | 0.00 | 0.00 | 0.00 | 67 | 1013.6 |
| 20260504010018 | 51 | 63 | 0.0 | 0.0 | 0.00 | 0.00 | 0.00 | 65 | 1013.6 |
| 20260504005018 | 52 | 63 | 0.0 | 0.0 | 0.00 | 0.00 | 0.00 | 63 | 1013.6 |
| 20260504004518 | 52 | 63 | 0.0 | 0.0 | 0.00 | 0.00 | 0.00 | 61 | 1013.5 |
| 20260504004017 | 53 | 63 | 0.0 | 0.0 | 0.00 | 0.00 | 0.00 | 60 | 1013.4 |
| 20260504003518 | 53 | 63 | 0.0 | 0.0 | 0.00 | 0.00 | 0.00 | 59 | 1013.4 |
| 20260504003018 | 53 | 63 | 0.0 | 0.0 | 0.00 | 0.00 | 0.00 | 59 | 1013.3 |
| 20260504002518 | 54 | 63 | 0.0 | 0.0 | 0.00 | 0.00 | 0.00 | 58 | 1013.2 |
| 20260504002018 | 55 | 63 | 0.0 | 0.0 | 0.00 | 0.00 | 0.00 | 57 | 1013.2 |
| 20260504001018 | 56 | 63 | 0.0 | 0.0 | 0.00 | 0.00 | 0.00 | 56 | 1013.1 |
| 20260504000518 | 56 | 63 | 0.0 | 0.0 | 0.00 | 0.00 | 0.00 | 55 | 1013.1 |
| 20260504000019 | 57 | 63 | 0.0 | 0.0 | 0.00 | 0.00 | 0.00 | 54 | 1013.1 |
| 20260503235518 | 57 | 63 | 0.0 | 0.0 | 0.00 | 0.00 | 0.00 | 53 | 1013.1 |
| 20260503233519 | 59 | 63 | 0.0 | 1.0 | 0.00 | 0.00 | 0.00 | 48 | 1013.1 |
| 20260503233018 | 60 | 63 | 0.0 | 0.0 | 0.00 | 0.00 | 0.00 | 48 | 1013.2 |
| 20260503232518 | 60 | 63 | 0.0 | 1.0 | 0.00 | 0.00 | 0.00 | 45 | 1013.1 |
| 20260503232029 | 61 | 63 | 0.0 | 2.0 | 0.00 | 0.00 | 0.00 | 42 | 1013.2 |
| 20260503231518 | 61 | 64 | 0.0 | 0.0 | 0.00 | 0.00 | 0.00 | 40 | 1013.1 |
| 20260503231018 | 61 | 64 | 0.0 | 0.0 | 0.00 | 0.00 | 0.00 | 39 | 1013.1 |
| 20260503230518 | 62 | 64 | 0.0 | 1.0 | 0.00 | 0.00 | 0.00 | 38 | 1013.0 |
| 20260503230018 | 62 | 64 | 0.0 | 1.0 | 0.00 | 0.00 | 0.00 | 38 | 1013.1 |
| 20260503225518 | 62 | 64 | 0.0 | 0.0 | 0.00 | 0.00 | 0.00 | 37 | 1013.1 |
| 20260503224518 | 63 | 64 | 0.0 | 1.0 | 0.00 | 0.00 | 0.00 | 35 | 1013.2 |
| 20260503223518 | 63 | 60 | 0.0 | 4.0 | 0.00 | 0.00 | 0.00 | 36 | 1013.3 |
| 20260503223018 | 63 | 49 | 1.0 | 3.0 | 0.00 | 0.00 | 0.00 | 35 | 1013.4 |
| 20260503222518 | 63 | 57 | 0.0 | 2.0 | 0.00 | 0.00 | 0.00 | 36 | 1013.4 |
| 20260503222018 | 63 | 56 | 0.0 | 5.0 | 0.00 | 0.00 | 0.00 | 34 | 1013.4 |
| 20260503221519 | 64 | 43 | 2.0 | 5.0 | 0.00 | 0.00 | 0.00 | 34 | 1013.4 |
| 20260503221019 | 64 | 74 | 2.0 | 3.0 | 0.00 | 0.00 | 0.00 | 35 | 1013.4 |
| 20260503220518 | 64 | 49 | 1.0 | 3.0 | 0.00 | 0.00 | 0.00 | 35 | 1013.5 |
| 20260503220018 | 64 | 62 | 0.0 | 5.0 | 0.00 | 0.00 | 0.00 | 35 | 1013.6 |
| 20260503215518 | 64 | 25 | 1.0 | 5.0 | 0.00 | 0.00 | 0.00 | 34 | 1013.6 |
| 20260503215018 | 64 | 77 | 1.0 | 3.0 | 0.00 | 0.00 | 0.00 | 34 | 1013.7 |
| 20260503214518 | 64 | 57 | 0.0 | 5.0 | 0.00 | 0.00 | 0.00 | 34 | 1013.8 |
| 20260503214029 | 64 | 68 | 3.0 | 6.0 | 0.00 | 0.00 | 0.00 | 34 | 1013.9 |
| 20260503213521 | 65 | 49 | 1.0 | 3.0 | 0.00 | 0.00 | 0.00 | 35 | 1013.9 |
| 20260503213018 | 65 | 57 | 0.0 | 3.0 | 0.00 | 0.00 | 0.00 | 33 | 1013.9 |
| 20260503212529 | 65 | 56 | 0.0 | 3.0 | 0.00 | 0.00 | 0.00 | 34 | 1014.0 |
| 20260503212018 | 65 | 120 | 1.0 | 3.0 | 0.00 | 0.00 | 0.00 | 32 | 1014.0 |
| 20260503211518 | 65 | 39 | 2.0 | 8.0 | 0.00 | 0.00 | 0.00 | 33 | 1014.0 |
| 20260503211018 | 65 | 53 | 3.0 | 8.0 | 0.00 | 0.00 | 0.00 | 31 | 1014.0 |
| 20260503210518 | 65 | 56 | 0.0 | 2.0 | 0.00 | 0.00 | 0.00 | 33 | 1014.1 |
| 20260503210018 | 65 | 59 | 0.0 | 2.0 | 0.00 | 0.00 | 0.00 | 32 | 1014.1 |
| 20260503205518 | 65 | 78 | 0.0 | 4.0 | 0.00 | 0.00 | 0.00 | 31 | 1014.1 |
| 20260503205018 | 64 | 57 | 1.0 | 4.0 | 0.00 | 0.00 | 0.00 | 32 | 1014.2 |
| 20260503204518 | 64 | 70 | 1.0 | 3.0 | 0.00 | 0.00 | 0.00 | 34 | 1014.3 |
| 20260503204029 | 64 | 74 | 0.0 | 4.0 | 0.00 | 0.00 | 0.00 | 33 | 1014.2 |
| 20260503203529 | 64 | 53 | 1.0 | 5.0 | 0.00 | 0.00 | 0.00 | 33 | 1014.4 |
| 20260503203018 | 64 | 50 | 3.0 | 5.0 | 0.00 | 0.00 | 0.00 | 31 | 1014.4 |
| 20260503202518 | 64 | 60 | 1.0 | 4.0 | 0.00 | 0.00 | 0.00 | 33 | 1014.5 |
| 20260503200518 | 66 | 46 | 1.0 | 3.0 | 0.00 | 0.00 | 0.00 | 32 | 1014.7 |
| 20260503200018 | 66 | 110 | 1.0 | 5.0 | 0.00 | 0.00 | 0.00 | 28 | 1014.8 |
| 20260503195518 | 66 | 50 | 3.0 | 5.0 | 0.00 | 0.00 | 0.00 | 29 | 1015.0 |
| 20260503195018 | 67 | 77 | 1.0 | 3.0 | 0.00 | 0.00 | 0.00 | 29 | 1014.9 |
| 20260503194518 | 67 | 75 | 2.0 | 3.0 | 0.00 | 0.00 | 0.00 | 28 | 1015.0 |
| 20260503194018 | 67 | 103 | 1.0 | 3.0 | 0.00 | 0.00 | 0.00 | 29 | 1015.0 |
| 20260503193518 | 67 | 68 | 1.0 | 3.0 | 0.00 | 0.00 | 0.00 | 27 | 1015.1 |
| 20260503193019 | 68 | 90 | 1.0 | 3.0 | 0.00 | 0.00 | 0.00 | 27 | 1015.1 |
| 20260503192518 | 68 | 84 | 1.0 | 3.0 | 0.00 | 0.00 | 0.00 | 30 | 1015.2 |
| 20260503192018 | 68 | 72 | 1.0 | 3.0 | 0.00 | 0.00 | 0.00 | 26 | 1015.2 |
| 20260503191518 | 68 | 72 | 0.0 | 3.0 | 0.00 | 0.00 | 0.00 | 27 | 1015.4 |
| 20260503191018 | 68 | 69 | 0.0 | 5.0 | 0.00 | 0.00 | 0.00 | 29 | 1015.4 |
| 20260503190518 | 67 | 85 | 1.0 | 5.0 | 0.00 | 0.00 | 0.00 | 30 | 1015.5 |
| 20260503190029 | 68 | 68 | 1.0 | 2.0 | 0.00 | 0.00 | 0.00 | 26 | 1015.6 |
| 20260503185518 | 68 | 92 | 1.0 | 6.0 | 0.00 | 0.00 | 0.00 | 28 | 1015.5 |
| 20260503185018 | 67 | 58 | 1.0 | 6.0 | 0.00 | 0.00 | 0.00 | 28 | 1015.5 |
| 20260503184518 | 68 | 93 | 0.0 | 3.0 | 0.00 | 0.00 | 0.00 | 27 | 1015.9 |
| 20260503184019 | 68 | 105 | 1.0 | 5.0 | 0.00 | 0.00 | 0.00 | 30 | 1016.0 |
| 20260503183529 | 67 | 101 | 1.0 | 5.0 | 0.00 | 0.00 | 0.00 | 27 | 1016.0 |
| 20260503183029 | 67 | 79 | 1.0 | 3.0 | 0.00 | 0.00 | 0.00 | 28 | 1016.1 |
| 20260503182519 | 67 | 97 | 1.0 | 3.0 | 0.00 | 0.00 | 0.00 | 29 | 1016.1 |
| 20260503182018 | 66 | 59 | 0.0 | 4.0 | 0.00 | 0.00 | 0.00 | 32 | 1016.2 |
| 20260503181518 | 66 | 78 | 2.0 | 6.0 | 0.00 | 0.00 | 0.00 | 28 | 1016.3 |